createdAt,value
2018-05-12T00:01:15.413Z,12.33
2018-05-12T00:03:45.170Z,12.87
2018-05-12T00:06:18.042Z,11.17
2018-05-12T00:08:47.561Z,11.87
2018-05-12T00:11:19.086Z,10.83
2018-05-12T00:13:47.583Z,11.23
2018-05-12T00:16:22.310Z,17.90
2018-05-12T00:18:52.563Z,13.87
2018-05-12T00:21:23.744Z,14.90
2018-05-12T00:23:52.267Z,11.90
2018-05-12T00:26:26.130Z,13.40
2018-05-12T00:28:54.599Z,12.33
2018-05-12T00:31:37.095Z,15.33
2018-05-12T00:34:05.844Z,12.50
2018-05-12T00:36:35.111Z,11.83
2018-05-12T00:39:05.262Z,13.77
2018-05-12T00:41:35.202Z,17.03
2018-05-12T00:44:03.770Z,15.50
2018-05-12T00:46:36.064Z,17.17
2018-05-12T00:49:04.792Z,13.00
2018-05-12T00:51:45.610Z,19.40
2018-05-12T00:54:14.141Z,15.23
2018-05-12T00:56:42.868Z,14.60
2018-05-12T00:59:12.855Z,15.40
2018-05-12T01:01:42.066Z,13.97
2018-05-12T01:04:11.843Z,17.40
2018-05-12T01:06:44.437Z,14.87
2018-05-12T01:09:12.904Z,16.33
2018-05-12T01:11:55.279Z,18.87
2018-05-12T01:14:24.178Z,14.57
2018-05-12T01:16:52.934Z,14.27
2018-05-12T01:19:22.527Z,16.57
2018-05-12T01:21:52.065Z,16.60
2018-05-12T01:24:21.566Z,14.00
2018-05-12T01:27:03.112Z,16.23
2018-05-12T01:29:33.371Z,14.40
2018-05-12T01:32:02.656Z,14.80
2018-05-12T01:34:33.317Z,15.73
2018-05-12T01:37:03.128Z,20.07
2018-05-12T01:39:33.246Z,16.67
2018-05-12T01:42:02.143Z,14.30
2018-05-12T01:44:30.883Z,20.53
2018-05-12T01:47:04.902Z,16.67
2018-05-12T01:49:33.656Z,17.73
2018-05-12T01:52:07.647Z,17.33
2018-05-12T01:54:36.116Z,17.20
2018-05-12T01:57:09.531Z,20.43
2018-05-12T01:59:38.398Z,16.80
2018-05-12T02:02:12.582Z,18.50
2018-05-12T02:04:42.607Z,19.73
2018-05-12T02:07:14.846Z,17.63
2018-05-12T02:09:44.498Z,19.53
2018-05-12T02:12:16.669Z,19.13
2018-05-12T02:14:46.166Z,19.33
2018-05-12T02:17:18.019Z,21.23
2018-05-12T02:19:46.796Z,22.07
2018-05-12T02:22:19.861Z,19.13
2018-05-12T02:24:49.121Z,21.67
2018-05-12T02:27:21.934Z,20.57
2018-05-12T02:29:50.803Z,19.87
2018-05-12T02:32:32.739Z,21.70
2018-05-12T02:35:01.248Z,20.87
2018-05-12T02:37:29.993Z,20.77
2018-05-12T02:39:58.467Z,20.57
2018-05-12T02:42:30.755Z,20.90
2018-05-12T02:44:59.551Z,20.50
2018-05-12T02:47:33.116Z,20.70
2018-05-12T02:50:01.609Z,20.67
2018-05-12T02:52:43.634Z,22.90
2018-05-12T02:55:12.899Z,23.33
2018-05-12T02:57:43.177Z,22.10
2018-05-12T03:00:11.657Z,22.30
2018-05-12T03:02:40.935Z,22.33
2018-05-12T03:05:11.235Z,23.27
2018-05-12T03:07:41.007Z,26.23
2018-05-12T03:10:09.618Z,26.80
2018-05-12T03:12:42.916Z,25.50
2018-05-12T03:15:11.456Z,30.20
2018-05-12T03:17:45.570Z,22.73
2018-05-12T03:20:15.507Z,27.37
2018-05-12T03:22:49.038Z,26.30
2018-05-12T03:25:18.654Z,30.00
2018-05-12T03:27:51.236Z,24.30
2018-05-12T03:30:21.075Z,24.23
2018-05-12T03:32:53.919Z,23.37
2018-05-12T03:35:23.370Z,24.80
2018-05-12T03:37:55.234Z,26.50
2018-05-12T03:40:24.730Z,23.80
2018-05-12T03:43:06.396Z,22.77
2018-05-12T03:45:36.736Z,24.47
2018-05-12T03:48:06.372Z,21.53
2018-05-12T03:50:36.338Z,25.93
2018-05-12T03:53:06.189Z,26.33
2018-05-12T03:55:36.179Z,25.73
2018-05-12T03:58:05.558Z,22.27
2018-05-12T04:00:35.409Z,28.80
2018-05-12T04:03:17.909Z,27.77
2018-05-12T04:10:09.746Z,23.43
2018-05-12T04:12:39.062Z,25.30
2018-05-12T04:15:12.170Z,27.67
2018-05-12T04:17:42.166Z,29.10
2018-05-12T04:20:19.771Z,25.23
2018-05-12T04:22:48.274Z,25.87
2018-05-12T04:25:19.529Z,24.43
2018-05-12T04:27:50.984Z,22.53
2018-05-12T04:30:23.000Z,26.50
2018-05-12T04:32:51.512Z,23.30
2018-05-12T04:35:24.055Z,24.83
2018-05-12T04:37:52.552Z,23.60
2018-05-12T04:40:25.971Z,23.07
2018-05-12T04:42:55.461Z,21.13
2018-05-12T04:45:27.904Z,19.83
2018-05-12T04:47:57.650Z,20.50
2018-05-12T04:50:30.170Z,22.23
2018-05-12T04:52:59.678Z,22.57
2018-05-12T04:55:32.328Z,26.77
2018-05-12T04:58:01.845Z,22.50
2018-05-12T05:00:35.336Z,18.83
2018-05-12T05:03:04.905Z,24.07
2018-05-12T05:05:37.250Z,22.07
2018-05-12T05:08:07.538Z,18.27
2018-05-12T05:10:39.851Z,22.13
2018-05-12T05:13:09.939Z,20.13
2018-05-12T05:15:42.222Z,20.80
2018-05-12T05:18:11.741Z,20.20
2018-05-12T05:20:43.708Z,23.50
2018-05-12T05:23:13.322Z,20.70
2018-05-12T05:25:54.168Z,32.00
2018-05-12T05:28:23.638Z,32.07
2018-05-12T05:30:53.151Z,26.90
2018-05-12T05:33:22.410Z,23.30
2018-05-12T05:35:51.558Z,23.00
2018-05-12T05:38:20.415Z,23.13
2018-05-12T05:40:53.635Z,22.53
2018-05-12T05:43:23.162Z,19.83
2018-05-12T05:45:56.134Z,21.87
2018-05-12T05:48:25.617Z,21.63
2018-05-12T05:50:58.799Z,21.03
2018-05-12T05:53:27.703Z,22.17
2018-05-12T05:56:01.357Z,17.00
2018-05-12T05:58:30.153Z,16.63
2018-05-12T06:01:10.994Z,14.97
2018-05-12T06:03:40.476Z,16.00
2018-05-12T06:06:09.725Z,18.40
2018-05-12T06:08:38.240Z,16.33
2018-05-12T06:11:10.103Z,16.17
2018-05-12T06:13:38.570Z,16.17
2018-05-12T06:16:19.643Z,14.65
2018-05-12T06:18:48.941Z,16.20
2018-05-12T06:21:17.692Z,14.43
2018-05-12T06:23:46.657Z,15.43
2018-05-12T06:26:17.047Z,14.85
2018-05-12T06:28:45.766Z,14.52
2018-05-12T06:31:18.160Z,14.77
2018-05-12T06:33:47.434Z,12.43
2018-05-12T06:36:20.882Z,11.75
2018-05-12T06:38:49.788Z,14.45
2018-05-12T06:41:30.640Z,11.98
2018-05-12T06:43:59.504Z,15.82
2018-05-12T06:46:28.705Z,21.40
2018-05-12T06:48:57.955Z,14.10
2018-05-12T06:51:26.831Z,15.00
2018-05-12T06:53:57.135Z,15.95
2018-05-12T06:56:28.800Z,19.63
2018-05-12T06:58:58.464Z,15.60
2018-05-12T07:01:31.259Z,13.07
2018-05-12T07:04:01.014Z,13.35
2018-05-12T07:06:34.921Z,14.15
2018-05-12T07:09:04.587Z,15.48
2018-05-12T07:11:36.086Z,14.35
2018-05-12T07:14:05.088Z,13.07
2018-05-12T07:16:38.361Z,12.95
2018-05-12T07:19:07.668Z,11.45
2018-05-12T07:21:40.916Z,12.10
2018-05-12T07:24:10.490Z,13.65
2018-05-12T07:26:42.404Z,12.35
2018-05-12T07:29:11.791Z,12.07
2018-05-12T07:31:44.925Z,12.25
2018-05-12T07:34:14.115Z,12.25
2018-05-12T07:36:55.696Z,11.38
2018-05-12T07:39:27.910Z,12.48
2018-05-12T07:41:56.801Z,11.07
2018-05-12T07:44:25.303Z,10.60
2018-05-12T07:46:54.624Z,10.43
2018-05-12T07:49:23.130Z,9.00
2018-05-12T07:51:54.709Z,9.90
2018-05-12T07:54:25.007Z,11.02
2018-05-12T07:56:57.340Z,14.60
2018-05-12T07:59:26.668Z,16.35
2018-05-12T08:02:09.090Z,12.45
2018-05-12T08:04:38.015Z,14.70
2018-05-12T08:07:08.465Z,14.05
2018-05-12T08:09:36.951Z,14.07
2018-05-12T08:12:07.088Z,11.57
2018-05-12T08:14:35.883Z,11.50
2018-05-12T08:17:07.919Z,11.50
2018-05-12T08:19:36.824Z,13.73
2018-05-12T08:22:11.435Z,12.77
2018-05-12T08:24:40.355Z,11.27
2018-05-12T08:27:22.132Z,11.00
2018-05-12T08:29:51.212Z,10.82
2018-05-12T08:32:20.228Z,11.80
2018-05-12T08:34:49.876Z,10.15
2018-05-12T08:37:19.483Z,9.40
2018-05-12T08:39:49.275Z,7.78
2018-05-12T08:42:22.119Z,10.77
2018-05-12T08:44:51.319Z,7.65
2018-05-12T08:47:23.055Z,9.93
2018-05-12T08:49:52.115Z,7.72
2018-05-12T08:52:24.988Z,7.20
2018-05-12T08:54:53.891Z,4.72
2018-05-12T08:57:35.633Z,5.50
2018-05-12T09:00:04.793Z,3.75
2018-05-12T09:02:33.338Z,6.25
2018-05-12T09:05:01.900Z,6.50
2018-05-12T09:07:31.681Z,5.65
2018-05-12T09:10:00.653Z,6.45
2018-05-12T09:12:41.956Z,6.12
2018-05-12T09:15:11.997Z,3.33
2018-05-12T09:17:41.991Z,2.72
2018-05-12T09:20:11.403Z,5.30
2018-05-12T09:22:40.880Z,3.15
2018-05-12T09:25:10.410Z,5.72
2018-05-12T09:27:41.111Z,2.90
2018-05-12T09:30:09.966Z,4.50
2018-05-12T09:32:52.181Z,6.90
2018-05-12T09:35:22.989Z,4.95
2018-05-12T09:37:52.995Z,8.20
2018-05-12T09:40:22.563Z,4.17
2018-05-12T09:42:51.526Z,4.43
2018-05-12T09:45:21.074Z,4.90
2018-05-12T09:47:51.704Z,6.70
2018-05-12T09:50:21.242Z,6.40
2018-05-12T09:52:54.087Z,4.93
2018-05-12T09:55:23.740Z,3.00
2018-05-12T09:57:54.909Z,3.57
2018-05-12T10:00:25.203Z,4.20
2018-05-12T10:02:58.522Z,4.57
2018-05-12T10:05:27.030Z,8.77
2018-05-12T10:08:00.320Z,4.63
2018-05-12T10:10:30.016Z,4.77
2018-05-12T10:13:06.647Z,4.17
2018-05-12T10:15:36.353Z,6.97
2018-05-12T10:18:06.739Z,5.17
2018-05-12T10:20:36.306Z,4.73
2018-05-12T10:23:10.325Z,4.47
2018-05-12T10:25:39.307Z,3.43
2018-05-12T10:28:20.819Z,4.03
2018-05-12T10:30:50.674Z,5.17
2018-05-12T10:33:20.086Z,5.77
2018-05-12T10:35:53.465Z,5.17
2018-05-12T10:38:23.358Z,4.17
2018-05-12T10:40:52.952Z,4.60
2018-05-12T10:43:22.490Z,3.37
2018-05-12T10:45:52.352Z,5.67
2018-05-12T10:48:21.866Z,4.37
2018-05-12T10:50:51.365Z,4.37
2018-05-12T10:53:22.348Z,4.80
2018-05-12T10:55:51.899Z,4.80
2018-05-12T10:58:25.472Z,5.33
2018-05-12T11:00:55.303Z,3.23
2018-05-12T11:03:26.604Z,3.37
2018-05-12T11:05:55.125Z,3.70
2018-05-12T11:08:29.524Z,5.80
2018-05-12T11:10:58.799Z,4.87
2018-05-12T11:13:39.836Z,5.77
2018-05-12T11:16:09.792Z,4.67
2018-05-12T11:18:39.319Z,6.00
2018-05-12T11:21:08.199Z,4.20
2018-05-12T11:23:36.975Z,4.07
2018-05-12T11:26:07.061Z,6.60
2018-05-12T11:28:39.599Z,3.77
2018-05-12T11:31:08.839Z,4.37
2018-05-12T11:33:41.968Z,7.20
2018-05-12T11:36:12.232Z,3.63
2018-05-12T11:38:43.159Z,4.73
2018-05-12T11:41:12.768Z,4.37
2018-05-12T11:43:54.487Z,3.97
2018-05-12T11:46:23.285Z,6.33
2018-05-12T11:48:53.395Z,5.10
2018-05-12T11:51:22.994Z,4.30
2018-05-12T11:53:52.852Z,4.97
2018-05-12T11:56:22.541Z,5.03
2018-05-12T11:58:54.907Z,4.20
2018-05-12T12:01:25.376Z,4.00
2018-05-12T12:03:57.082Z,5.80
2018-05-12T12:06:26.681Z,5.57
2018-05-12T12:08:58.544Z,5.30
2018-05-12T12:11:27.121Z,4.20
2018-05-12T12:14:02.822Z,6.73
2018-05-12T12:16:32.760Z,3.43
2018-05-12T12:19:05.246Z,3.03
2018-05-12T12:21:34.599Z,2.95
2018-05-12T12:24:07.100Z,3.72
2018-05-12T12:26:36.751Z,4.83
2018-05-12T12:29:18.719Z,3.50
2018-05-12T12:31:47.887Z,5.15
2018-05-12T12:34:17.801Z,6.50
2018-05-12T12:36:48.927Z,8.30
2018-05-12T12:39:18.223Z,5.13
2018-05-12T12:41:47.884Z,6.07
2018-05-12T12:44:18.446Z,11.97
2018-05-12T12:46:49.639Z,6.03
2018-05-12T12:49:20.064Z,3.47
2018-05-12T12:51:49.529Z,3.60
2018-05-12T12:54:23.365Z,4.00
2018-05-12T12:56:52.289Z,6.32
2018-05-12T12:59:24.594Z,7.90
2018-05-12T13:01:54.530Z,3.90
2018-05-12T13:04:28.231Z,4.97
2018-05-12T13:06:56.783Z,6.80
2018-05-12T13:09:29.225Z,5.32
2018-05-12T13:11:58.186Z,5.78
2018-05-12T13:14:30.618Z,5.85
2018-05-12T13:17:01.206Z,4.93
2018-05-12T13:19:32.520Z,6.18
2018-05-12T13:22:02.132Z,5.50
2018-05-12T13:24:36.056Z,7.30
2018-05-12T13:27:06.306Z,7.53
2018-05-12T13:29:39.295Z,5.93
2018-05-12T13:32:08.187Z,6.10
2018-05-12T13:34:41.234Z,4.97
2018-05-12T13:37:10.236Z,8.77
2018-05-12T13:39:42.168Z,5.35
2018-05-12T13:42:10.713Z,4.83
2018-05-12T13:44:44.511Z,6.80
2018-05-12T13:47:15.426Z,5.35
2018-05-12T13:49:48.955Z,4.68
2018-05-12T13:52:18.732Z,7.22
2018-05-12T13:54:50.435Z,4.57
2018-05-12T13:57:19.723Z,6.50
2018-05-12T14:00:01.170Z,6.50
2018-05-12T14:02:30.453Z,6.32
2018-05-12T14:04:59.409Z,5.53
2018-05-12T14:07:29.088Z,5.12
2018-05-12T14:09:58.245Z,4.73
2018-05-12T14:12:27.557Z,5.07
2018-05-12T14:15:00.139Z,6.67
2018-05-12T14:17:29.112Z,6.07
2018-05-12T14:20:11.333Z,6.97
2018-05-12T14:22:41.013Z,8.00
2018-05-12T14:25:11.079Z,5.13
2018-05-12T14:27:40.074Z,6.37
2018-05-12T14:30:10.490Z,6.23
2018-05-12T14:32:39.071Z,4.93
2018-05-12T14:35:12.150Z,5.47
2018-05-12T14:37:42.653Z,4.20
2018-05-12T15:02:39.675Z,6.10
2018-05-12T15:05:09.783Z,5.30
2018-05-12T15:07:41.219Z,4.97
2018-05-12T15:10:10.760Z,4.10
2018-05-12T15:12:42.848Z,4.50
2018-05-12T15:15:12.721Z,7.20
2018-05-12T15:17:42.354Z,6.63
2018-05-12T15:20:12.278Z,4.73
2018-05-12T15:22:43.163Z,4.00
2018-05-12T15:25:12.933Z,5.83
2018-05-12T15:27:42.300Z,7.30
2018-05-12T15:30:12.870Z,4.40
2018-05-12T15:32:42.585Z,4.60
2018-05-12T15:35:11.233Z,4.60
2018-05-12T15:37:41.980Z,5.13
2018-05-12T15:40:11.586Z,4.03
2018-05-12T15:42:53.598Z,4.40
2018-05-12T15:45:23.471Z,4.40
2018-05-12T15:47:53.671Z,4.40
2018-05-12T15:50:25.333Z,6.10
2018-05-12T15:52:55.646Z,4.40
2018-05-12T15:55:25.266Z,5.97
2018-05-12T15:57:55.037Z,5.13
2018-05-12T16:00:25.273Z,4.93
2018-05-12T16:02:53.929Z,5.27
2018-05-12T16:05:22.912Z,6.10
2018-05-12T16:08:05.102Z,5.33
2018-05-12T16:10:34.173Z,5.87
2018-05-12T16:13:04.160Z,5.03
2018-05-12T16:15:33.623Z,6.40
2018-05-12T16:18:02.594Z,8.73
2018-05-12T16:20:32.973Z,5.30
2018-05-12T16:23:04.687Z,5.77
2018-05-12T16:25:34.100Z,6.50
2018-05-12T16:28:09.088Z,6.60
2018-05-12T16:30:38.637Z,5.43
2018-05-12T16:33:11.931Z,5.57
2018-05-12T16:35:41.917Z,7.30
2018-05-12T16:38:13.412Z,6.53
2018-05-12T16:40:43.510Z,6.83
2018-05-12T16:43:15.517Z,6.47
2018-05-12T16:45:57.857Z,6.00
2018-05-12T16:48:28.126Z,8.20
2018-05-12T16:50:58.229Z,7.13
2018-05-12T16:53:27.827Z,7.40
2018-05-12T16:55:56.768Z,5.70
2018-05-12T16:58:26.138Z,7.20
2018-05-12T17:00:55.615Z,5.67
2018-05-12T17:03:25.704Z,6.13
2018-05-12T17:05:55.419Z,7.70
2018-05-12T17:08:24.995Z,5.60
2018-05-12T17:10:54.275Z,5.30
2018-05-12T17:13:28.425Z,6.07
2018-05-12T17:15:57.787Z,5.03
2018-05-12T17:18:30.821Z,9.17
2018-05-12T17:21:00.381Z,5.23
2018-05-12T17:23:33.603Z,6.63
2018-05-12T17:26:03.445Z,5.83
2018-05-12T17:28:35.094Z,5.17
2018-05-12T17:31:04.095Z,6.10
2018-05-12T17:33:37.852Z,7.13
2018-05-12T17:36:07.386Z,7.77
2018-05-12T17:38:48.772Z,7.80
2018-05-12T17:41:18.137Z,5.97
2018-05-12T17:43:47.115Z,5.17
2018-05-12T17:46:16.637Z,5.67
2018-05-12T17:48:46.011Z,7.27
2018-05-12T17:51:14.940Z,6.77
2018-05-12T17:53:47.487Z,5.80
2018-05-12T17:56:17.391Z,8.10
2018-05-12T17:58:49.006Z,8.03
2018-05-12T18:01:18.598Z,6.17
2018-05-12T18:03:52.293Z,6.00
2018-05-12T18:06:22.213Z,6.50
2018-05-12T18:08:56.586Z,8.47
2018-05-12T18:11:26.494Z,6.73
2018-05-12T18:13:57.651Z,6.20
2018-05-12T18:16:27.181Z,7.80
2018-05-12T18:19:00.554Z,8.33
2018-05-12T18:21:30.096Z,5.67
2018-05-12T18:24:03.979Z,7.73
2018-05-12T18:26:34.155Z,8.90
2018-05-12T18:29:06.296Z,6.83
2018-05-12T18:31:35.860Z,6.87
2018-05-12T18:34:08.462Z,7.07
2018-05-12T18:36:37.987Z,8.57
2018-05-12T18:39:20.160Z,7.17
2018-05-12T18:41:52.555Z,9.33
2018-05-12T18:44:21.269Z,7.30
2018-05-12T18:46:50.779Z,8.03
2018-05-12T18:49:20.586Z,9.73
2018-05-12T18:51:49.143Z,9.23
2018-05-12T18:54:19.103Z,12.87
2018-05-12T18:56:48.098Z,8.60
2018-05-12T18:59:21.635Z,11.53
2018-05-12T19:01:51.266Z,8.63
2018-05-12T19:04:33.587Z,8.53
2018-05-12T19:07:03.142Z,8.50
2018-05-12T19:09:33.016Z,10.10
2018-05-12T19:12:03.822Z,8.53
2018-05-12T19:14:34.075Z,9.27
2018-05-12T19:17:03.603Z,9.37
2018-05-12T19:19:34.528Z,8.87
2018-05-12T19:22:04.041Z,9.00
2018-05-12T19:24:34.208Z,9.90
2018-05-12T19:27:03.967Z,8.97
2018-05-12T19:29:32.822Z,7.80
2018-05-12T19:32:02.363Z,8.27
2018-05-12T19:34:35.738Z,8.63
2018-05-12T19:37:05.039Z,8.70
2018-05-12T19:39:48.102Z,8.57
2018-05-12T19:42:18.952Z,8.50
2018-05-12T19:44:48.525Z,8.63
2018-05-12T19:47:18.069Z,8.33
2018-05-12T19:49:47.998Z,11.80
2018-05-12T19:52:18.554Z,10.00
2018-05-12T19:54:48.185Z,10.87
2018-05-12T19:57:18.082Z,9.60
2018-05-12T19:59:47.866Z,9.90
2018-05-12T20:02:16.386Z,8.93
2018-05-12T20:04:49.827Z,9.33
2018-05-12T20:07:18.373Z,8.83
2018-05-12T20:09:51.956Z,8.80
2018-05-12T20:12:21.665Z,12.67
2018-05-12T20:14:55.875Z,9.23
2018-05-12T20:17:25.458Z,9.40
2018-05-12T20:19:58.134Z,8.87
2018-05-12T20:22:27.629Z,12.50
2018-05-12T20:25:00.685Z,18.43
2018-05-12T20:27:30.992Z,11.93
2018-05-12T20:30:05.468Z,11.87
2018-05-12T20:32:35.056Z,10.43
2018-05-12T20:35:06.680Z,10.63
2018-05-12T20:37:36.310Z,9.00
2018-05-12T20:40:17.683Z,8.97
2018-05-12T20:42:47.643Z,8.83
2018-05-12T20:45:17.313Z,9.13
2018-05-12T20:47:47.025Z,10.87
2018-05-12T20:50:16.868Z,9.73
2018-05-12T20:52:46.224Z,11.17
2018-05-12T20:55:19.174Z,11.57
2018-05-12T20:57:52.387Z,10.10
2018-05-12T21:00:22.064Z,11.77
2018-05-12T21:02:51.620Z,12.20
2018-05-12T21:05:24.673Z,11.83
2018-05-12T21:07:55.219Z,13.53
2018-05-12T21:10:25.307Z,11.77
2018-05-12T21:12:56.189Z,11.93
2018-05-12T21:15:24.878Z,12.97
2018-05-12T21:17:54.448Z,11.60
2018-05-12T21:20:28.235Z,10.57
2018-05-12T21:22:57.789Z,11.90
2018-05-12T21:25:29.351Z,12.77
2018-05-12T21:27:59.343Z,10.37
2018-05-12T21:30:34.132Z,13.17
2018-05-12T21:33:03.766Z,10.47
2018-05-12T21:35:35.129Z,10.77
2018-05-12T21:38:04.788Z,12.97
2018-05-12T21:40:36.640Z,11.43
2018-05-12T21:43:05.698Z,9.87
2018-05-12T21:45:39.368Z,11.60
2018-05-12T21:48:08.986Z,12.80
2018-05-12T21:50:42.622Z,11.07
2018-05-12T21:53:12.466Z,11.40
2018-05-12T21:55:42.103Z,10.33
2018-05-12T21:58:11.608Z,10.90
2018-05-12T22:00:45.004Z,12.40
2018-05-12T22:03:14.739Z,11.87
2018-05-12T22:05:47.621Z,16.13
2018-05-12T22:08:17.591Z,13.70
2018-05-12T22:10:51.443Z,12.83
2018-05-12T22:13:23.883Z,13.77
2018-05-12T22:15:53.800Z,11.83
2018-05-12T22:18:23.327Z,13.93
2018-05-12T22:20:56.993Z,10.80
2018-05-12T22:23:28.235Z,11.57
2018-05-12T22:25:59.619Z,12.03
2018-05-12T22:28:29.214Z,12.67
2018-05-12T22:31:00.356Z,13.00
2018-05-12T22:33:29.391Z,11.70
2018-05-12T22:36:20.745Z,12.67
2018-05-12T22:38:51.458Z,14.47
2018-05-12T22:41:21.461Z,12.63
2018-05-12T22:43:51.491Z,10.23
2018-05-12T22:46:21.345Z,12.70
2018-05-12T22:48:50.990Z,12.53
2018-05-12T22:51:21.827Z,12.23
2018-05-12T22:53:51.795Z,10.93
2018-05-12T22:56:21.418Z,13.83
2018-05-12T22:58:50.984Z,13.17
2018-05-12T23:01:21.306Z,11.27
2018-05-12T23:03:50.671Z,12.97
2018-05-12T23:06:20.417Z,12.90
2018-05-12T23:08:50.276Z,12.10
2018-05-12T23:11:20.424Z,14.70
2018-05-12T23:13:50.507Z,14.03
2018-05-12T23:16:22.270Z,12.67
2018-05-12T23:18:53.373Z,12.23
2018-05-12T23:21:24.885Z,14.03
2018-05-12T23:23:54.935Z,18.80
2018-05-12T23:26:28.363Z,17.90
2018-05-12T23:28:58.515Z,16.10
2018-05-12T23:31:29.370Z,15.87
2018-05-12T23:33:58.931Z,15.93
2018-05-12T23:36:31.251Z,17.73
2018-05-12T23:52:14.878Z,15.13
2018-05-12T23:54:44.437Z,18.57
2018-05-12T23:57:14.848Z,16.47
2018-05-12T23:59:43.991Z,16.10
